sensor_id;sensor_type;location;lat;lon;timestamp;P1;durP1;ratioP1;P2;durP2;ratioP2
13609;SDS011;6876;50.788;4.940;2023-07-31T00:01:02;10.25;;;5.72;;
13609;SDS011;6876;50.788;4.940;2023-07-31T00:03:51;12.30;;;5.35;;
13609;SDS011;6876;50.788;4.940;2023-07-31T00:06:38;13.95;;;5.63;;
13609;SDS011;6876;50.788;4.940;2023-07-31T00:09:25;11.13;;;5.75;;
13609;SDS011;6876;50.788;4.940;2023-07-31T00:12:13;13.30;;;5.43;;
13609;SDS011;6876;50.788;4.940;2023-07-31T00:15:00;10.23;;;5.37;;
13609;SDS011;6876;50.788;4.940;2023-07-31T00:17:47;10.82;;;4.88;;
13609;SDS011;6876;50.788;4.940;2023-07-31T00:20:36;12.05;;;5.68;;
13609;SDS011;6876;50.788;4.940;2023-07-31T00:23:23;11.63;;;5.90;;
13609;SDS011;6876;50.788;4.940;2023-07-31T00:26:11;8.57;;;5.15;;
13609;SDS011;6876;50.788;4.940;2023-07-31T00:28:58;12.23;;;5.82;;
13609;SDS011;6876;50.788;4.940;2023-07-31T00:31:45;9.05;;;5.63;;
13609;SDS011;6876;50.788;4.940;2023-07-31T00:34:32;11.15;;;5.50;;
13609;SDS011;6876;50.788;4.940;2023-07-31T00:37:21;9.00;;;5.60;;
13609;SDS011;6876;50.788;4.940;2023-07-31T00:40:09;9.50;;;5.85;;
13609;SDS011;6876;50.788;4.940;2023-07-31T00:42:56;10.98;;;5.80;;
13609;SDS011;6876;50.788;4.940;2023-07-31T00:45:43;11.25;;;5.72;;
13609;SDS011;6876;50.788;4.940;2023-07-31T00:48:30;9.35;;;6.30;;
13609;SDS011;6876;50.788;4.940;2023-07-31T00:51:19;11.00;;;5.60;;
13609;SDS011;6876;50.788;4.940;2023-07-31T00:54:08;11.32;;;5.97;;
13609;SDS011;6876;50.788;4.940;2023-07-31T00:56:57;12.32;;;5.45;;
13609;SDS011;6876;50.788;4.940;2023-07-31T00:59:44;8.90;;;5.65;;
13609;SDS011;6876;50.788;4.940;2023-07-31T01:02:32;10.67;;;5.97;;
13609;SDS011;6876;50.788;4.940;2023-07-31T01:05:20;13.15;;;5.78;;
13609;SDS011;6876;50.788;4.940;2023-07-31T01:08:18;9.27;;;5.87;;
13609;SDS011;6876;50.788;4.940;2023-07-31T01:11:15;12.33;;;6.37;;
13609;SDS011;6876;50.788;4.940;2023-07-31T01:14:08;11.30;;;5.93;;
13609;SDS011;6876;50.788;4.940;2023-07-31T01:16:55;10.38;;;5.70;;
13609;SDS011;6876;50.788;4.940;2023-07-31T01:19:42;12.63;;;5.55;;
13609;SDS011;6876;50.788;4.940;2023-07-31T01:22:35;10.30;;;5.82;;
13609;SDS011;6876;50.788;4.940;2023-07-31T01:25:55;11.35;;;5.82;;
13609;SDS011;6876;50.788;4.940;2023-07-31T01:28:50;11.27;;;6.53;;
13609;SDS011;6876;50.788;4.940;2023-07-31T01:31:43;12.20;;;6.55;;
13609;SDS011;6876;50.788;4.940;2023-07-31T01:34:34;12.38;;;7.07;;
13609;SDS011;6876;50.788;4.940;2023-07-31T01:37:27;13.43;;;6.05;;
13609;SDS011;6876;50.788;4.940;2023-07-31T01:40:15;11.93;;;6.90;;
13609;SDS011;6876;50.788;4.940;2023-07-31T01:43:04;11.05;;;6.93;;
13609;SDS011;6876;50.788;4.940;2023-07-31T01:45:51;11.98;;;7.53;;
13609;SDS011;6876;50.788;4.940;2023-07-31T01:48:39;12.00;;;6.70;;
13609;SDS011;6876;50.788;4.940;2023-07-31T01:51:26;11.13;;;6.25;;
13609;SDS011;6876;50.788;4.940;2023-07-31T01:54:13;7.90;;;6.67;;
13609;SDS011;6876;50.788;4.940;2023-07-31T01:57:00;10.20;;;6.93;;
13609;SDS011;6876;50.788;4.940;2023-07-31T01:59:49;11.95;;;6.90;;
13609;SDS011;6876;50.788;4.940;2023-07-31T02:02:38;11.20;;;6.63;;
13609;SDS011;6876;50.788;4.940;2023-07-31T02:05:25;11.52;;;6.38;;
13609;SDS011;6876;50.788;4.940;2023-07-31T02:08:13;8.48;;;6.07;;
13609;SDS011;6876;50.788;4.940;2023-07-31T02:11:00;11.30;;;6.38;;
13609;SDS011;6876;50.788;4.940;2023-07-31T02:13:48;10.30;;;5.93;;
13609;SDS011;6876;50.788;4.940;2023-07-31T02:16:36;10.00;;;5.53;;
13609;SDS011;6876;50.788;4.940;2023-07-31T02:19:23;10.85;;;6.20;;
13609;SDS011;6876;50.788;4.940;2023-07-31T02:22:11;9.27;;;5.97;;
13609;SDS011;6876;50.788;4.940;2023-07-31T02:24:58;9.63;;;6.00;;
13609;SDS011;6876;50.788;4.940;2023-07-31T02:27:45;9.73;;;6.32;;
13609;SDS011;6876;50.788;4.940;2023-07-31T02:30:32;9.77;;;6.35;;
13609;SDS011;6876;50.788;4.940;2023-07-31T02:33:21;10.07;;;6.73;;
13609;SDS011;6876;50.788;4.940;2023-07-31T02:36:08;8.20;;;7.38;;
13609;SDS011;6876;50.788;4.940;2023-07-31T02:38:55;10.55;;;7.30;;
13609;SDS011;6876;50.788;4.940;2023-07-31T02:41:43;9.15;;;7.25;;
13609;SDS011;6876;50.788;4.940;2023-07-31T02:44:30;9.90;;;7.83;;
13609;SDS011;6876;50.788;4.940;2023-07-31T02:47:17;9.57;;;7.70;;
13609;SDS011;6876;50.788;4.940;2023-07-31T02:50:06;9.15;;;7.78;;
13609;SDS011;6876;50.788;4.940;2023-07-31T02:52:54;8.65;;;7.22;;
13609;SDS011;6876;50.788;4.940;2023-07-31T02:55:41;8.23;;;7.20;;
13609;SDS011;6876;50.788;4.940;2023-07-31T02:58:28;10.67;;;6.83;;
13609;SDS011;6876;50.788;4.940;2023-07-31T03:01:15;9.65;;;6.88;;
13609;SDS011;6876;50.788;4.940;2023-07-31T03:04:03;8.95;;;6.85;;
13609;SDS011;6876;50.788;4.940;2023-07-31T03:06:52;8.65;;;6.97;;
13609;SDS011;6876;50.788;4.940;2023-07-31T03:09:39;10.35;;;6.88;;
13609;SDS011;6876;50.788;4.940;2023-07-31T03:12:26;8.70;;;6.43;;
13609;SDS011;6876;50.788;4.940;2023-07-31T03:15:14;10.80;;;6.82;;
13609;SDS011;6876;50.788;4.940;2023-07-31T03:18:01;9.90;;;6.57;;
13609;SDS011;6876;50.788;4.940;2023-07-31T03:20:49;9.30;;;6.32;;
13609;SDS011;6876;50.788;4.940;2023-07-31T03:23:37;7.03;;;6.05;;
13609;SDS011;6876;50.788;4.940;2023-07-31T03:26:25;6.63;;;5.68;;
13609;SDS011;6876;50.788;4.940;2023-07-31T03:29:12;9.48;;;6.18;;
13609;SDS011;6876;50.788;4.940;2023-07-31T03:32:00;6.47;;;5.60;;
13609;SDS011;6876;50.788;4.940;2023-07-31T03:34:47;8.90;;;6.30;;
13609;SDS011;6876;50.788;4.940;2023-07-31T03:37:34;7.77;;;6.00;;
13609;SDS011;6876;50.788;4.940;2023-07-31T03:40:23;7.22;;;5.78;;
13609;SDS011;6876;50.788;4.940;2023-07-31T03:43:10;8.15;;;5.55;;
13609;SDS011;6876;50.788;4.940;2023-07-31T03:45:57;6.53;;;5.85;;
13609;SDS011;6876;50.788;4.940;2023-07-31T03:48:45;7.60;;;5.27;;
13609;SDS011;6876;50.788;4.940;2023-07-31T03:51:32;7.38;;;5.72;;
13609;SDS011;6876;50.788;4.940;2023-07-31T03:54:19;9.52;;;6.00;;
13609;SDS011;6876;50.788;4.940;2023-07-31T03:57:08;10.95;;;6.10;;
13609;SDS011;6876;50.788;4.940;2023-07-31T03:59:55;9.00;;;6.00;;
13609;SDS011;6876;50.788;4.940;2023-07-31T04:02:43;7.80;;;6.15;;
13609;SDS011;6876;50.788;4.940;2023-07-31T04:05:31;7.03;;;6.00;;
13609;SDS011;6876;50.788;4.940;2023-07-31T04:08:19;12.00;;;6.60;;
13609;SDS011;6876;50.788;4.940;2023-07-31T04:11:06;7.27;;;6.20;;
13609;SDS011;6876;50.788;4.940;2023-07-31T04:13:56;8.73;;;6.70;;
13609;SDS011;6876;50.788;4.940;2023-07-31T04:16:43;8.45;;;7.60;;
13609;SDS011;6876;50.788;4.940;2023-07-31T04:19:30;10.05;;;7.32;;
13609;SDS011;6876;50.788;4.940;2023-07-31T04:22:18;9.57;;;7.28;;
13609;SDS011;6876;50.788;4.940;2023-07-31T04:25:05;7.65;;;6.82;;
13609;SDS011;6876;50.788;4.940;2023-07-31T04:27:53;8.33;;;6.53;;
13609;SDS011;6876;50.788;4.940;2023-07-31T04:30:41;12.18;;;7.53;;
13609;SDS011;6876;50.788;4.940;2023-07-31T04:33:29;10.23;;;7.50;;
13609;SDS011;6876;50.788;4.940;2023-07-31T04:36:16;8.93;;;7.20;;
13609;SDS011;6876;50.788;4.940;2023-07-31T04:39:04;9.60;;;7.63;;
13609;SDS011;6876;50.788;4.940;2023-07-31T04:41:52;9.68;;;7.95;;
13609;SDS011;6876;50.788;4.940;2023-07-31T04:44:39;7.72;;;6.97;;
13609;SDS011;6876;50.788;4.940;2023-07-31T04:47:28;8.15;;;5.15;;
13609;SDS011;6876;50.788;4.940;2023-07-31T04:50:15;8.07;;;4.30;;
13609;SDS011;6876;50.788;4.940;2023-07-31T04:53:03;6.20;;;4.30;;
13609;SDS011;6876;50.788;4.940;2023-07-31T04:55:50;5.50;;;3.90;;
13609;SDS011;6876;50.788;4.940;2023-07-31T04:58:37;7.07;;;4.13;;
13609;SDS011;6876;50.788;4.940;2023-07-31T05:01:25;7.63;;;3.65;;
13609;SDS011;6876;50.788;4.940;2023-07-31T05:04:13;7.28;;;3.97;;
13609;SDS011;6876;50.788;4.940;2023-07-31T05:07:01;6.33;;;4.17;;
13609;SDS011;6876;50.788;4.940;2023-07-31T05:09:49;6.60;;;4.22;;
13609;SDS011;6876;50.788;4.940;2023-07-31T05:12:36;5.78;;;3.95;;
13609;SDS011;6876;50.788;4.940;2023-07-31T05:15:23;5.43;;;3.85;;
13609;SDS011;6876;50.788;4.940;2023-07-31T05:18:10;7.47;;;4.30;;
13609;SDS011;6876;50.788;4.940;2023-07-31T05:20:59;6.55;;;3.90;;
13609;SDS011;6876;50.788;4.940;2023-07-31T05:23:46;6.57;;;4.00;;
13609;SDS011;6876;50.788;4.940;2023-07-31T05:26:34;6.82;;;4.03;;
13609;SDS011;6876;50.788;4.940;2023-07-31T05:29:21;8.98;;;4.00;;
13609;SDS011;6876;50.788;4.940;2023-07-31T05:32:09;6.63;;;3.90;;
13609;SDS011;6876;50.788;4.940;2023-07-31T05:34:56;7.75;;;4.32;;
13609;SDS011;6876;50.788;4.940;2023-07-31T05:37:45;7.68;;;3.85;;
13609;SDS011;6876;50.788;4.940;2023-07-31T05:40:32;7.78;;;3.85;;
13609;SDS011;6876;50.788;4.940;2023-07-31T05:43:19;6.50;;;4.05;;
13609;SDS011;6876;50.788;4.940;2023-07-31T05:46:07;8.73;;;4.10;;
13609;SDS011;6876;50.788;4.940;2023-07-31T05:48:54;5.28;;;3.58;;
13609;SDS011;6876;50.788;4.940;2023-07-31T05:51:42;7.10;;;3.83;;
13609;SDS011;6876;50.788;4.940;2023-07-31T05:54:31;7.80;;;4.15;;
13609;SDS011;6876;50.788;4.940;2023-07-31T05:57:19;8.13;;;3.77;;
13609;SDS011;6876;50.788;4.940;2023-07-31T06:00:07;8.53;;;4.30;;
13609;SDS011;6876;50.788;4.940;2023-07-31T06:02:55;6.83;;;4.10;;
13609;SDS011;6876;50.788;4.940;2023-07-31T06:05:43;8.37;;;4.60;;
13609;SDS011;6876;50.788;4.940;2023-07-31T06:08:30;6.23;;;4.17;;
13609;SDS011;6876;50.788;4.940;2023-07-31T06:11:20;7.73;;;4.67;;
13609;SDS011;6876;50.788;4.940;2023-07-31T06:14:08;6.33;;;4.20;;
13609;SDS011;6876;50.788;4.940;2023-07-31T06:16:55;6.93;;;4.30;;
13609;SDS011;6876;50.788;4.940;2023-07-31T06:19:42;7.83;;;4.10;;
13609;SDS011;6876;50.788;4.940;2023-07-31T06:22:29;8.38;;;4.50;;
13609;SDS011;6876;50.788;4.940;2023-07-31T06:25:17;6.23;;;3.97;;
13609;SDS011;6876;50.788;4.940;2023-07-31T06:28:06;6.38;;;4.40;;
13609;SDS011;6876;50.788;4.940;2023-07-31T06:30:53;7.32;;;4.70;;
13609;SDS011;6876;50.788;4.940;2023-07-31T06:33:40;7.35;;;3.97;;
13609;SDS011;6876;50.788;4.940;2023-07-31T06:36:28;7.50;;;4.50;;
13609;SDS011;6876;50.788;4.940;2023-07-31T06:39:15;7.23;;;4.53;;
13609;SDS011;6876;50.788;4.940;2023-07-31T06:42:02;7.35;;;3.83;;
13609;SDS011;6876;50.788;4.940;2023-07-31T06:44:52;7.93;;;4.40;;
13609;SDS011;6876;50.788;4.940;2023-07-31T06:47:39;5.32;;;4.28;;
13609;SDS011;6876;50.788;4.940;2023-07-31T06:50:26;7.65;;;4.25;;
13609;SDS011;6876;50.788;4.940;2023-07-31T06:53:14;8.15;;;3.72;;
13609;SDS011;6876;50.788;4.940;2023-07-31T06:56:01;8.63;;;3.80;;
13609;SDS011;6876;50.788;4.940;2023-07-31T06:58:49;7.40;;;3.55;;
13609;SDS011;6876;50.788;4.940;2023-07-31T07:01:38;8.82;;;3.60;;
13609;SDS011;6876;50.788;4.940;2023-07-31T07:04:25;6.40;;;3.45;;
13609;SDS011;6876;50.788;4.940;2023-07-31T07:07:13;5.90;;;3.42;;
13609;SDS011;6876;50.788;4.940;2023-07-31T07:10:00;8.18;;;3.47;;
13609;SDS011;6876;50.788;4.940;2023-07-31T07:12:48;5.20;;;3.03;;
13609;SDS011;6876;50.788;4.940;2023-07-31T07:15:36;5.20;;;3.20;;
13609;SDS011;6876;50.788;4.940;2023-07-31T07:18:25;7.07;;;3.38;;
13609;SDS011;6876;50.788;4.940;2023-07-31T07:21:12;6.28;;;3.28;;
13609;SDS011;6876;50.788;4.940;2023-07-31T07:24:01;6.90;;;3.55;;
13609;SDS011;6876;50.788;4.940;2023-07-31T07:26:48;7.15;;;3.45;;
13609;SDS011;6876;50.788;4.940;2023-07-31T07:29:35;6.30;;;3.20;;
13609;SDS011;6876;50.788;4.940;2023-07-31T07:32:24;4.38;;;2.90;;
13609;SDS011;6876;50.788;4.940;2023-07-31T07:35:13;7.72;;;3.50;;
13609;SDS011;6876;50.788;4.940;2023-07-31T07:38:01;4.80;;;2.90;;
13609;SDS011;6876;50.788;4.940;2023-07-31T07:40:48;7.18;;;3.70;;
13609;SDS011;6876;50.788;4.940;2023-07-31T07:43:39;5.60;;;3.22;;
13609;SDS011;6876;50.788;4.940;2023-07-31T07:46:26;4.93;;;3.42;;
13609;SDS011;6876;50.788;4.940;2023-07-31T07:49:13;6.60;;;3.78;;
13609;SDS011;6876;50.788;4.940;2023-07-31T07:52:02;4.35;;;2.90;;
13609;SDS011;6876;50.788;4.940;2023-07-31T07:54:50;5.80;;;3.50;;
13609;SDS011;6876;50.788;4.940;2023-07-31T07:57:37;6.22;;;2.92;;
13609;SDS011;6876;50.788;4.940;2023-07-31T08:00:25;6.03;;;3.35;;
13609;SDS011;6876;50.788;4.940;2023-07-31T08:03:12;4.83;;;3.43;;
13609;SDS011;6876;50.788;4.940;2023-07-31T08:06:00;7.27;;;3.70;;
13609;SDS011;6876;50.788;4.940;2023-07-31T08:08:49;6.90;;;3.50;;
13609;SDS011;6876;50.788;4.940;2023-07-31T08:11:36;6.60;;;3.30;;
13609;SDS011;6876;50.788;4.940;2023-07-31T08:14:23;4.75;;;3.65;;
13609;SDS011;6876;50.788;4.940;2023-07-31T08:17:11;5.20;;;3.60;;
13609;SDS011;6876;50.788;4.940;2023-07-31T08:19:58;6.20;;;3.45;;
13609;SDS011;6876;50.788;4.940;2023-07-31T08:22:45;9.20;;;3.85;;
13609;SDS011;6876;50.788;4.940;2023-07-31T08:25:35;7.15;;;3.88;;
13609;SDS011;6876;50.788;4.940;2023-07-31T08:28:23;6.38;;;3.58;;
13609;SDS011;6876;50.788;4.940;2023-07-31T08:31:10;5.25;;;3.05;;
13609;SDS011;6876;50.788;4.940;2023-07-31T08:33:57;5.25;;;3.25;;
13609;SDS011;6876;50.788;4.940;2023-07-31T08:36:45;7.55;;;3.80;;
13609;SDS011;6876;50.788;4.940;2023-07-31T08:39:32;5.63;;;3.47;;
13609;SDS011;6876;50.788;4.940;2023-07-31T08:42:21;7.50;;;3.58;;
13609;SDS011;6876;50.788;4.940;2023-07-31T08:45:08;4.68;;;3.30;;
13609;SDS011;6876;50.788;4.940;2023-07-31T08:47:58;6.70;;;3.47;;
13609;SDS011;6876;50.788;4.940;2023-07-31T08:50:45;5.47;;;3.25;;
13609;SDS011;6876;50.788;4.940;2023-07-31T08:53:33;7.43;;;3.05;;
13609;SDS011;6876;50.788;4.940;2023-07-31T08:56:20;4.63;;;2.78;;
13609;SDS011;6876;50.788;4.940;2023-07-31T08:59:09;6.13;;;3.05;;
13609;SDS011;6876;50.788;4.940;2023-07-31T09:02:00;3.65;;;2.72;;
13609;SDS011;6876;50.788;4.940;2023-07-31T09:04:52;4.32;;;2.40;;
13609;SDS011;6876;50.788;4.940;2023-07-31T09:07:40;3.97;;;2.40;;
13609;SDS011;6876;50.788;4.940;2023-07-31T09:10:31;4.85;;;2.15;;
13609;SDS011;6876;50.788;4.940;2023-07-31T09:13:19;3.22;;;2.35;;
13609;SDS011;6876;50.788;4.940;2023-07-31T09:16:08;3.22;;;2.25;;
13609;SDS011;6876;50.788;4.940;2023-07-31T09:18:56;3.88;;;2.13;;
13609;SDS011;6876;50.788;4.940;2023-07-31T09:21:47;2.45;;;1.90;;
13609;SDS011;6876;50.788;4.940;2023-07-31T09:24:35;3.30;;;2.10;;
13609;SDS011;6876;50.788;4.940;2023-07-31T09:27:22;3.88;;;1.77;;
13609;SDS011;6876;50.788;4.940;2023-07-31T09:30:10;2.03;;;1.83;;
13609;SDS011;6876;50.788;4.940;2023-07-31T09:33:03;2.72;;;1.80;;
13609;SDS011;6876;50.788;4.940;2023-07-31T09:35:52;2.95;;;2.40;;
13609;SDS011;6876;50.788;4.940;2023-07-31T09:38:41;3.75;;;2.20;;
13609;SDS011;6876;50.788;4.940;2023-07-31T09:41:28;3.47;;;2.53;;
13609;SDS011;6876;50.788;4.940;2023-07-31T09:44:16;2.70;;;2.22;;
13609;SDS011;6876;50.788;4.940;2023-07-31T09:47:03;3.00;;;2.67;;
13609;SDS011;6876;50.788;4.940;2023-07-31T09:49:52;3.90;;;2.70;;
13609;SDS011;6876;50.788;4.940;2023-07-31T09:52:39;3.90;;;2.70;;
13609;SDS011;6876;50.788;4.940;2023-07-31T09:55:27;7.05;;;3.15;;
13609;SDS011;6876;50.788;4.940;2023-07-31T09:58:17;4.15;;;3.08;;
13609;SDS011;6876;50.788;4.940;2023-07-31T10:01:05;4.28;;;2.90;;
13609;SDS011;6876;50.788;4.940;2023-07-31T10:03:53;5.30;;;3.03;;
13609;SDS011;6876;50.788;4.940;2023-07-31T10:06:42;4.70;;;3.47;;
13609;SDS011;6876;50.788;4.940;2023-07-31T10:09:32;6.63;;;3.33;;
13609;SDS011;6876;50.788;4.940;2023-07-31T10:12:20;7.25;;;3.55;;
13609;SDS011;6876;50.788;4.940;2023-07-31T10:15:12;7.50;;;3.72;;
13609;SDS011;6876;50.788;4.940;2023-07-31T10:18:01;7.60;;;4.00;;
13609;SDS011;6876;50.788;4.940;2023-07-31T10:20:49;4.75;;;3.55;;
13609;SDS011;6876;50.788;4.940;2023-07-31T10:23:38;6.35;;;3.90;;
13609;SDS011;6876;50.788;4.940;2023-07-31T10:26:27;6.47;;;3.80;;
13609;SDS011;6876;50.788;4.940;2023-07-31T10:29:15;5.13;;;3.70;;
13609;SDS011;6876;50.788;4.940;2023-07-31T10:32:04;8.00;;;4.43;;
13609;SDS011;6876;50.788;4.940;2023-07-31T10:34:54;6.85;;;4.22;;
13609;SDS011;6876;50.788;4.940;2023-07-31T10:37:42;7.30;;;4.07;;
13609;SDS011;6876;50.788;4.940;2023-07-31T10:40:31;6.78;;;4.25;;
13609;SDS011;6876;50.788;4.940;2023-07-31T10:43:24;6.03;;;3.97;;
13609;SDS011;6876;50.788;4.940;2023-07-31T10:46:13;7.43;;;3.78;;
13609;SDS011;6876;50.788;4.940;2023-07-31T10:49:02;5.75;;;3.80;;
13609;SDS011;6876;50.788;4.940;2023-07-31T10:51:49;10.32;;;4.20;;
13609;SDS011;6876;50.788;4.940;2023-07-31T10:54:37;6.55;;;4.20;;
13609;SDS011;6876;50.788;4.940;2023-07-31T10:57:27;8.45;;;4.35;;
13609;SDS011;6876;50.788;4.940;2023-07-31T11:00:24;6.38;;;4.10;;
13609;SDS011;6876;50.788;4.940;2023-07-31T11:03:13;6.93;;;4.35;;
13609;SDS011;6876;50.788;4.940;2023-07-31T11:06:03;7.35;;;4.13;;
13609;SDS011;6876;50.788;4.940;2023-07-31T11:08:51;8.23;;;4.13;;
13609;SDS011;6876;50.788;4.940;2023-07-31T11:11:38;9.32;;;4.35;;
13609;SDS011;6876;50.788;4.940;2023-07-31T11:14:27;6.65;;;4.35;;
13609;SDS011;6876;50.788;4.940;2023-07-31T11:17:14;6.90;;;4.35;;
13609;SDS011;6876;50.788;4.940;2023-07-31T11:20:01;8.38;;;4.10;;
13609;SDS011;6876;50.788;4.940;2023-07-31T11:22:49;6.65;;;3.80;;
13609;SDS011;6876;50.788;4.940;2023-07-31T11:25:37;5.28;;;4.00;;
13609;SDS011;6876;50.788;4.940;2023-07-31T11:28:30;7.55;;;4.05;;
13609;SDS011;6876;50.788;4.940;2023-07-31T11:31:20;7.47;;;4.22;;
13609;SDS011;6876;50.788;4.940;2023-07-31T11:34:08;6.43;;;4.30;;
13609;SDS011;6876;50.788;4.940;2023-07-31T11:36:55;7.82;;;3.88;;
13609;SDS011;6876;50.788;4.940;2023-07-31T11:39:42;6.28;;;4.10;;
13609;SDS011;6876;50.788;4.940;2023-07-31T11:42:30;6.22;;;4.25;;
13609;SDS011;6876;50.788;4.940;2023-07-31T11:45:17;6.85;;;4.00;;
13609;SDS011;6876;50.788;4.940;2023-07-31T11:48:06;7.38;;;4.50;;
13609;SDS011;6876;50.788;4.940;2023-07-31T11:50:54;8.95;;;4.18;;
13609;SDS011;6876;50.788;4.940;2023-07-31T11:53:45;12.05;;;4.57;;
13609;SDS011;6876;50.788;4.940;2023-07-31T11:56:37;7.32;;;4.25;;
13609;SDS011;6876;50.788;4.940;2023-07-31T11:59:24;9.25;;;4.55;;
13609;SDS011;6876;50.788;4.940;2023-07-31T12:02:12;8.50;;;3.92;;
13609;SDS011;6876;50.788;4.940;2023-07-31T12:05:01;7.40;;;3.72;;
13609;SDS011;6876;50.788;4.940;2023-07-31T12:07:49;6.03;;;3.97;;
13609;SDS011;6876;50.788;4.940;2023-07-31T12:10:38;8.60;;;4.30;;
13609;SDS011;6876;50.788;4.940;2023-07-31T12:13:26;5.85;;;4.05;;
13609;SDS011;6876;50.788;4.940;2023-07-31T12:16:14;8.02;;;3.90;;
13609;SDS011;6876;50.788;4.940;2023-07-31T12:19:01;6.25;;;3.63;;
13609;SDS011;6876;50.788;4.940;2023-07-31T12:21:50;7.35;;;4.30;;
13609;SDS011;6876;50.788;4.940;2023-07-31T12:24:38;8.43;;;4.05;;
13609;SDS011;6876;50.788;4.940;2023-07-31T12:27:32;6.07;;;3.88;;
13609;SDS011;6876;50.788;4.940;2023-07-31T12:30:26;6.30;;;3.83;;
13609;SDS011;6876;50.788;4.940;2023-07-31T12:33:15;9.40;;;3.90;;
13609;SDS011;6876;50.788;4.940;2023-07-31T12:36:03;6.25;;;3.92;;
13609;SDS011;6876;50.788;4.940;2023-07-31T12:38:52;8.23;;;5.05;;
13609;SDS011;6876;50.788;4.940;2023-07-31T12:41:41;6.40;;;4.60;;
13609;SDS011;6876;50.788;4.940;2023-07-31T12:44:28;7.40;;;4.55;;
13609;SDS011;6876;50.788;4.940;2023-07-31T12:47:16;6.18;;;4.28;;
13609;SDS011;6876;50.788;4.940;2023-07-31T12:50:03;8.48;;;4.70;;
13609;SDS011;6876;50.788;4.940;2023-07-31T12:52:52;5.90;;;4.30;;
13609;SDS011;6876;50.788;4.940;2023-07-31T12:55:41;6.82;;;4.75;;
13609;SDS011;6876;50.788;4.940;2023-07-31T12:58:29;8.35;;;4.50;;
13609;SDS011;6876;50.788;4.940;2023-07-31T13:01:16;7.68;;;4.88;;
13609;SDS011;6876;50.788;4.940;2023-07-31T13:04:04;6.20;;;4.32;;
13609;SDS011;6876;50.788;4.940;2023-07-31T13:06:51;7.45;;;4.95;;
13609;SDS011;6876;50.788;4.940;2023-07-31T13:09:38;10.32;;;4.97;;
13609;SDS011;6876;50.788;4.940;2023-07-31T13:12:27;8.00;;;5.00;;
13609;SDS011;6876;50.788;4.940;2023-07-31T13:15:14;8.43;;;4.75;;
13609;SDS011;6876;50.788;4.940;2023-07-31T13:18:02;6.30;;;3.92;;
13609;SDS011;6876;50.788;4.940;2023-07-31T13:20:49;9.90;;;4.57;;
13609;SDS011;6876;50.788;4.940;2023-07-31T13:23:37;7.85;;;4.82;;
13609;SDS011;6876;50.788;4.940;2023-07-31T13:26:24;7.93;;;4.97;;
13609;SDS011;6876;50.788;4.940;2023-07-31T13:29:13;9.20;;;5.28;;
13609;SDS011;6876;50.788;4.940;2023-07-31T13:32:00;7.25;;;4.93;;
13609;SDS011;6876;50.788;4.940;2023-07-31T13:34:47;7.13;;;5.00;;
13609;SDS011;6876;50.788;4.940;2023-07-31T13:37:35;10.77;;;4.95;;
13609;SDS011;6876;50.788;4.940;2023-07-31T13:40:22;6.13;;;3.78;;
13609;SDS011;6876;50.788;4.940;2023-07-31T13:43:09;8.15;;;3.88;;
13609;SDS011;6876;50.788;4.940;2023-07-31T13:45:58;6.63;;;4.25;;
13609;SDS011;6876;50.788;4.940;2023-07-31T13:48:51;5.35;;;3.08;;
13609;SDS011;6876;50.788;4.940;2023-07-31T13:51:40;4.47;;;3.10;;
13609;SDS011;6876;50.788;4.940;2023-07-31T13:54:28;8.38;;;3.90;;
13609;SDS011;6876;50.788;4.940;2023-07-31T13:57:15;5.20;;;2.78;;
13609;SDS011;6876;50.788;4.940;2023-07-31T14:00:03;6.13;;;3.53;;
13609;SDS011;6876;50.788;4.940;2023-07-31T14:02:52;5.18;;;3.13;;
13609;SDS011;6876;50.788;4.940;2023-07-31T14:05:39;4.03;;;3.03;;
13609;SDS011;6876;50.788;4.940;2023-07-31T14:08:27;5.82;;;3.30;;
13609;SDS011;6876;50.788;4.940;2023-07-31T14:11:17;6.18;;;4.43;;
13609;SDS011;6876;50.788;4.940;2023-07-31T14:14:04;4.82;;;3.45;;
13609;SDS011;6876;50.788;4.940;2023-07-31T14:16:51;3.47;;;2.50;;
13609;SDS011;6876;50.788;4.940;2023-07-31T14:19:40;4.35;;;2.90;;
13609;SDS011;6876;50.788;4.940;2023-07-31T14:22:28;5.78;;;3.10;;
13609;SDS011;6876;50.788;4.940;2023-07-31T14:25:15;2.97;;;2.10;;
13609;SDS011;6876;50.788;4.940;2023-07-31T14:28:03;4.80;;;2.70;;
13609;SDS011;6876;50.788;4.940;2023-07-31T14:30:50;5.38;;;2.70;;
13609;SDS011;6876;50.788;4.940;2023-07-31T14:33:37;3.65;;;2.67;;
13609;SDS011;6876;50.788;4.940;2023-07-31T14:36:26;4.03;;;3.05;;
13609;SDS011;6876;50.788;4.940;2023-07-31T14:39:13;5.32;;;3.30;;
13609;SDS011;6876;50.788;4.940;2023-07-31T14:42:01;5.25;;;3.17;;
13609;SDS011;6876;50.788;4.940;2023-07-31T14:44:48;4.75;;;3.10;;
13609;SDS011;6876;50.788;4.940;2023-07-31T14:47:35;4.72;;;3.33;;
13609;SDS011;6876;50.788;4.940;2023-07-31T14:50:23;3.30;;;2.70;;
13609;SDS011;6876;50.788;4.940;2023-07-31T14:53:12;3.25;;;2.95;;
13609;SDS011;6876;50.788;4.940;2023-07-31T14:56:00;3.42;;;2.53;;
13609;SDS011;6876;50.788;4.940;2023-07-31T14:58:48;3.15;;;2.30;;
13609;SDS011;6876;50.788;4.940;2023-07-31T15:01:35;3.75;;;2.88;;
13609;SDS011;6876;50.788;4.940;2023-07-31T15:04:22;3.42;;;2.70;;
13609;SDS011;6876;50.788;4.940;2023-07-31T15:07:10;3.33;;;2.95;;
13609;SDS011;6876;50.788;4.940;2023-07-31T15:10:00;4.80;;;2.20;;
13609;SDS011;6876;50.788;4.940;2023-07-31T15:12:50;2.92;;;2.42;;
13609;SDS011;6876;50.788;4.940;2023-07-31T15:15:37;2.92;;;2.20;;
13609;SDS011;6876;50.788;4.940;2023-07-31T15:18:25;2.63;;;2.30;;
13609;SDS011;6876;50.788;4.940;2023-07-31T15:21:13;4.18;;;2.42;;
13609;SDS011;6876;50.788;4.940;2023-07-31T15:24:00;3.75;;;2.25;;
13609;SDS011;6876;50.788;4.940;2023-07-31T15:26:49;3.22;;;2.63;;
13609;SDS011;6876;50.788;4.940;2023-07-31T15:29:36;3.08;;;2.33;;
13609;SDS011;6876;50.788;4.940;2023-07-31T15:32:23;4.00;;;2.60;;
13609;SDS011;6876;50.788;4.940;2023-07-31T15:35:11;3.35;;;2.72;;
13609;SDS011;6876;50.788;4.940;2023-07-31T15:37:58;3.00;;;2.45;;
13609;SDS011;6876;50.788;4.940;2023-07-31T15:40:45;5.15;;;2.30;;
13609;SDS011;6876;50.788;4.940;2023-07-31T15:43:34;2.63;;;2.30;;
13609;SDS011;6876;50.788;4.940;2023-07-31T15:46:22;2.50;;;2.30;;
13609;SDS011;6876;50.788;4.940;2023-07-31T15:49:09;4.13;;;2.15;;
13609;SDS011;6876;50.788;4.940;2023-07-31T15:51:59;2.85;;;2.30;;
13609;SDS011;6876;50.788;4.940;2023-07-31T15:54:46;2.90;;;2.33;;
13609;SDS011;6876;50.788;4.940;2023-07-31T15:57:33;2.28;;;2.08;;
13609;SDS011;6876;50.788;4.940;2023-07-31T16:00:22;2.15;;;1.70;;
13609;SDS011;6876;50.788;4.940;2023-07-31T16:03:09;2.15;;;1.95;;
13609;SDS011;6876;50.788;4.940;2023-07-31T16:05:57;2.22;;;1.70;;
13609;SDS011;6876;50.788;4.940;2023-07-31T16:08:45;2.22;;;1.90;;
13609;SDS011;6876;50.788;4.940;2023-07-31T16:11:32;2.20;;;2.00;;
13609;SDS011;6876;50.788;4.940;2023-07-31T16:14:19;3.72;;;2.10;;
13609;SDS011;6876;50.788;4.940;2023-07-31T16:17:08;3.92;;;2.08;;
13609;SDS011;6876;50.788;4.940;2023-07-31T16:19:55;2.63;;;1.77;;
13609;SDS011;6876;50.788;4.940;2023-07-31T16:22:43;1.95;;;1.70;;
13609;SDS011;6876;50.788;4.940;2023-07-31T16:25:30;3.60;;;1.98;;
13609;SDS011;6876;50.788;4.940;2023-07-31T16:28:17;1.90;;;1.42;;
13609;SDS011;6876;50.788;4.940;2023-07-31T16:31:06;4.20;;;1.75;;
13609;SDS011;6876;50.788;4.940;2023-07-31T16:33:54;1.60;;;1.50;;
13609;SDS011;6876;50.788;4.940;2023-07-31T16:36:44;2.05;;;1.75;;
13609;SDS011;6876;50.788;4.940;2023-07-31T16:39:32;2.60;;;1.67;;
13609;SDS011;6876;50.788;4.940;2023-07-31T16:42:21;2.15;;;1.83;;
13609;SDS011;6876;50.788;4.940;2023-07-31T16:45:09;1.42;;;1.30;;
13609;SDS011;6876;50.788;4.940;2023-07-31T16:47:56;1.63;;;1.52;;
13609;SDS011;6876;50.788;4.940;2023-07-31T16:50:45;1.70;;;1.60;;
13609;SDS011;6876;50.788;4.940;2023-07-31T16:53:33;2.17;;;1.63;;
13609;SDS011;6876;50.788;4.940;2023-07-31T16:56:21;1.83;;;1.70;;
13609;SDS011;6876;50.788;4.940;2023-07-31T16:59:08;2.47;;;1.58;;
13609;SDS011;6876;50.788;4.940;2023-07-31T17:01:55;3.25;;;1.70;;
13609;SDS011;6876;50.788;4.940;2023-07-31T17:04:42;3.35;;;1.73;;
13609;SDS011;6876;50.788;4.940;2023-07-31T17:07:31;1.52;;;1.42;;